Maersk Raleigh — MBFI9 — position and weather

sailwx.info

Track history (hours):
 
Tides and Currents Weather Stations Pressure Air Temp Water Temp Dewpoint Dewpoint Depression Visibility Wind Speed Wind Dir Waves Ship Positions

Maersk Raleigh

Last reported at 2018-May-14 14:55 UTC. Time now 2018-May-24 14:08 UTC.
Position N 10°07' W 018°06'.
Warning: this ship's position is 9 days out of date.

Length 172 m; draft 9.6 m.

Type: Ship. MMSI: 232008765.

Date/timePositionNaut miles runAvg speedWind from/ knotsBaromVisibWave heightAir tempDewpointWater temp
2018-May-14 14:55N 10°07' W 018°06'513.2
2018-May-14 14:30N 10°13' W 018°08'713.2
2018-May-14 14:00N 10°19' W 018°09'  
2018-May-11 03:31N 27°53' W 015°15'113.9
2018-May-11 03:29N 27°54' W 015°15'713.9
2018-May-11 03:00N 28°00' W 015°15'713.2
2018-May-11 02:30N 28°06' W 015°18'510.6
2018-May-11 02:00N 28°09' W 015°24'0 0.9
2018-May-11 01:30N 28°09' W 015°24'0 0.0
2018-May-11 01:00N 28°09' W 015°24'0 0.0
2018-May-11 00:30N 28°09' W 015°24'0 0.0
2018-May-11 00:00N 28°09' W 015°24'0 0.0
2018-May-10 23:27N 28°09' W 015°24'0 0.0
2018-May-10 23:00N 28°09' W 015°24'0 0.0
2018-May-10 22:30N 28°09' W 015°24'0 0.0
2018-May-10 22:00N 28°09' W 015°24'0 0.0
2018-May-10 21:30N 28°09' W 015°24'0 0.0
2018-May-10 21:00N 28°09' W 015°24'0 0.0
2018-May-10 20:31N 28°09' W 015°24'0 0.0
2018-May-10 20:01N 28°09' W 015°24'0 0.0
2018-May-10 19:31N 28°09' W 015°24'0 0.0
2018-May-10 19:01N 28°09' W 015°24'0 0.0
2018-May-10 18:30N 28°09' W 015°24'0 0.0
2018-May-10 18:00N 28°09' W 015°24'0 0.2
2018-May-10 17:31N 28°09' W 015°24'2 4.1
2018-May-10 17:00N 28°08' W 015°22'3 5.6
2018-May-10 16:31N 28°10' W 015°20'713.5
2018-May-10 16:00N 28°16' W 015°16'713.7
2018-May-10 15:27N 28°22' W 015°11'67013.1
2018-May-08 12:16N 35°59' W 005°32'310.4
2018-May-08 12:00N 35°59' W 005°29'510.8
2018-May-08 11:30N 36°01' W 005°23'510.6
2018-May-08 11:00N 36°02' W 005°16'  
2018-May-05 21:45N 37°31' E 011°14'413.0
2018-May-05 21:29N 37°29' E 011°18'613.1
2018-May-05 20:59N 37°27' E 011°25'4913.3
2018-May-05 17:17N 37°11' E 012°24'413.0
2018-May-05 17:00N 37°09' E 012°28'5013.1
2018-May-05 13:12N 36°50' E 013°25'313.4
2018-May-05 13:00N 36°49' E 013°28'713.3
2018-May-05 12:30N 36°46' E 013°36'713.4
2018-May-05 12:00N 36°44' E 013°44'713.3
2018-May-05 11:30N 36°41' E 013°51'612.8
2018-May-05 11:00N 36°38' E 013°59'612.6
2018-May-05 10:30N 36°36' E 014°06'612.4
2018-May-05 10:00N 36°33' E 014°13'612.1
2018-May-05 09:30N 36°31' E 014°20'611.7
2018-May-05 08:59N 36°28' E 014°27'612.1
2018-May-05 08:29N 36°26' E 014°34'612.1
2018-May-05 08:00N 36°25' E 014°41'712.1
2018-May-05 07:27N 36°24' E 014°49'512.0
2018-May-05 07:00N 36°22' E 014°55'  
Track history (hours):
 
Tides and Currents Weather Stations Pressure Air Temp Water Temp Dewpoint Dewpoint Depression Visibility Wind Speed Wind Dir Waves Ship Positions

Maersk Raleigh

Last reported at 2018-May-14 14:55 UTC. Time now 2018-May-24 14:08 UTC.
Position N 10°07' W 018°06'.
Warning: this ship's position is 9 days out of date.

Length 172 m; draft 9.6 m.

Type: Ship. MMSI: 232008765.

Date/timePositionNaut miles runAvg speedWind from/ knotsBaromVisibWave heightAir tempDewpointWater temp
2018-May-14 14:55N 10°07' W 018°06'513.2
2018-May-14 14:30N 10°13' W 018°08'713.2
2018-May-14 14:00N 10°19' W 018°09'  
2018-May-11 03:31N 27°53' W 015°15'113.9
2018-May-11 03:29N 27°54' W 015°15'713.9
2018-May-11 03:00N 28°00' W 015°15'713.2
2018-May-11 02:30N 28°06' W 015°18'510.6
2018-May-11 02:00N 28°09' W 015°24'0 0.9
2018-May-11 01:30N 28°09' W 015°24'0 0.0
2018-May-11 01:00N 28°09' W 015°24'0 0.0
2018-May-11 00:30N 28°09' W 015°24'0 0.0
2018-May-11 00:00N 28°09' W 015°24'0 0.0
2018-May-10 23:27N 28°09' W 015°24'0 0.0
2018-May-10 23:00N 28°09' W 015°24'0 0.0
2018-May-10 22:30N 28°09' W 015°24'0 0.0
2018-May-10 22:00N 28°09' W 015°24'0 0.0
2018-May-10 21:30N 28°09' W 015°24'0 0.0
2018-May-10 21:00N 28°09' W 015°24'0 0.0
2018-May-10 20:31N 28°09' W 015°24'0 0.0
2018-May-10 20:01N 28°09' W 015°24'0 0.0
2018-May-10 19:31N 28°09' W 015°24'0 0.0
2018-May-10 19:01N 28°09' W 015°24'0 0.0
2018-May-10 18:30N 28°09' W 015°24'0 0.0
2018-May-10 18:00N 28°09' W 015°24'0 0.2
2018-May-10 17:31N 28°09' W 015°24'2 4.1
2018-May-10 17:00N 28°08' W 015°22'3 5.6
2018-May-10 16:31N 28°10' W 015°20'713.5
2018-May-10 16:00N 28°16' W 015°16'713.7
2018-May-10 15:27N 28°22' W 015°11'67013.1
2018-May-08 12:16N 35°59' W 005°32'310.4
2018-May-08 12:00N 35°59' W 005°29'510.8
2018-May-08 11:30N 36°01' W 005°23'510.6
2018-May-08 11:00N 36°02' W 005°16'  
2018-May-05 21:45N 37°31' E 011°14'413.0
2018-May-05 21:29N 37°29' E 011°18'613.1
2018-May-05 20:59N 37°27' E 011°25'4913.3
2018-May-05 17:17N 37°11' E 012°24'413.0
2018-May-05 17:00N 37°09' E 012°28'5013.1
2018-May-05 13:12N 36°50' E 013°25'313.4
2018-May-05 13:00N 36°49' E 013°28'713.3
2018-May-05 12:30N 36°46' E 013°36'713.4
2018-May-05 12:00N 36°44' E 013°44'713.3
2018-May-05 11:30N 36°41' E 013°51'612.8
2018-May-05 11:00N 36°38' E 013°59'612.6
2018-May-05 10:30N 36°36' E 014°06'612.4
2018-May-05 10:00N 36°33' E 014°13'612.1
2018-May-05 09:30N 36°31' E 014°20'611.7
2018-May-05 08:59N 36°28' E 014°27'612.1
2018-May-05 08:29N 36°26' E 014°34'612.1
2018-May-05 08:00N 36°25' E 014°41'712.1
2018-May-05 07:27N 36°24' E 014°49'512.0
2018-May-05 07:00N 36°22' E 014°55'  

Dump ship's entire track history